createdAt,value
2022-08-05T00:11:07.766Z,81.9
2022-08-05T00:31:07.737Z,86.4
2022-08-05T00:51:07.994Z,78.3
2022-08-05T01:11:07.661Z,84.1
2022-08-05T01:31:07.652Z,82.8
2022-08-05T01:51:07.586Z,79.2
2022-08-05T02:11:07.556Z,83.9
2022-08-05T02:31:07.538Z,84.7
2022-08-05T02:51:07.492Z,83.3
2022-08-05T03:11:07.469Z,82.6
2022-08-05T03:31:07.465Z,86.1
2022-08-05T03:51:07.395Z,89.3
2022-08-05T04:11:07.375Z,85.0
2022-08-05T04:31:07.333Z,87.1
2022-08-05T04:51:07.316Z,92.3
2022-08-05T05:11:07.273Z,90.3
2022-08-05T05:31:07.268Z,89.4
2022-08-05T05:51:07.209Z,82.1
2022-08-05T06:11:07.185Z,77.5
2022-08-05T06:31:07.157Z,75.9
2022-08-05T06:51:07.323Z,72.6
2022-08-05T07:11:07.093Z,70.6
2022-08-05T07:31:07.041Z,70.4
2022-08-05T07:51:07.044Z,68.1
2022-08-05T08:11:06.985Z,65.0
2022-08-05T08:31:06.969Z,61.2
2022-08-05T08:51:06.933Z,59.3
2022-08-05T09:11:06.924Z,58.6
2022-08-05T09:31:06.856Z,57.4
2022-08-05T09:51:07.597Z,61.5
2022-08-05T10:11:06.795Z,56.6
2022-08-05T10:31:06.770Z,54.2
2022-08-05T10:51:06.734Z,55.9
2022-08-05T11:11:06.702Z,54.4
2022-08-05T11:31:06.678Z,55.8
2022-08-05T11:51:06.651Z,54.1
2022-08-05T12:11:06.607Z,56.8
2022-08-05T12:31:06.593Z,54.1
2022-08-05T12:51:06.553Z,56.8
2022-08-05T13:11:06.526Z,57.8
2022-08-05T13:31:06.488Z,52.6
2022-08-05T13:51:06.468Z,56.1
2022-08-05T14:11:06.421Z,56.8
2022-08-05T14:31:06.396Z,55.7
2022-08-05T14:51:06.362Z,60.5
2022-08-05T15:11:06.336Z,56.3
2022-08-05T15:31:06.313Z,62.2
2022-08-05T15:51:06.256Z,66.2
2022-08-05T16:11:06.253Z,56.3
2022-08-05T16:31:06.222Z,58.2
2022-08-05T16:51:06.201Z,61.6
2022-08-05T17:11:06.139Z,62.4
2022-08-05T17:31:06.118Z,63.5
2022-08-05T17:51:06.109Z,68.6
2022-08-05T18:11:06.056Z,65.9
2022-08-05T18:31:06.057Z,65.9
2022-08-05T18:51:07.254Z,70.4
2022-08-05T19:11:05.953Z,68.0
2022-08-05T19:31:05.926Z,68.0
2022-08-05T19:51:05.898Z,74.1
2022-08-05T20:11:05.857Z,81.3
2022-08-05T20:31:05.827Z,85.9
2022-08-05T20:51:05.793Z,86.2
2022-08-05T21:11:05.759Z,85.9
2022-08-05T21:31:05.745Z,91.1
2022-08-05T21:51:05.693Z,93.5
2022-08-05T22:11:05.669Z,97.5
2022-08-05T22:31:05.629Z,94.8
2022-08-05T22:51:05.606Z,95.3
2022-08-05T23:11:05.565Z,95.5
2022-08-05T23:31:05.538Z,96.6
2022-08-05T23:51:05.512Z,93.9
